sensor_id;sensor_type;location;lat;lon;timestamp;P1;durP1;ratioP1;P2;durP2;ratioP2
51475;SDS011;37554;50.362;7.568;2023-04-25T00:00:50;1.95;;;1.42;;
51475;SDS011;37554;50.362;7.568;2023-04-25T00:03:17;2.85;;;1.30;;
51475;SDS011;37554;50.362;7.568;2023-04-25T00:05:43;1.88;;;1.30;;
51475;SDS011;37554;50.362;7.568;2023-04-25T00:08:10;1.90;;;1.20;;
51475;SDS011;37554;50.362;7.568;2023-04-25T00:10:36;1.63;;;1.20;;
51475;SDS011;37554;50.362;7.568;2023-04-25T00:13:01;2.65;;;1.10;;
51475;SDS011;37554;50.362;7.568;2023-04-25T00:15:27;1.80;;;1.38;;
51475;SDS011;37554;50.362;7.568;2023-04-25T00:17:55;2.38;;;1.27;;
51475;SDS011;37554;50.362;7.568;2023-04-25T00:20:21;1.88;;;1.17;;
51475;SDS011;37554;50.362;7.568;2023-04-25T00:22:48;2.00;;;1.00;;
51475;SDS011;37554;50.362;7.568;2023-04-25T00:25:14;1.45;;;1.02;;
51475;SDS011;37554;50.362;7.568;2023-04-25T00:27:40;1.85;;;1.08;;
51475;SDS011;37554;50.362;7.568;2023-04-25T00:30:07;1.98;;;1.10;;
51475;SDS011;37554;50.362;7.568;2023-04-25T00:32:33;2.35;;;1.42;;
51475;SDS011;37554;50.362;7.568;2023-04-25T00:34:58;1.88;;;1.17;;
51475;SDS011;37554;50.362;7.568;2023-04-25T00:37:24;2.00;;;1.25;;
51475;SDS011;37554;50.362;7.568;2023-04-25T00:39:50;1.70;;;1.42;;
51475;SDS011;37554;50.362;7.568;2023-04-25T00:42:18;1.50;;;0.90;;
51475;SDS011;37554;50.362;7.568;2023-04-25T00:44:44;2.58;;;1.20;;
51475;SDS011;37554;50.362;7.568;2023-04-25T00:47:10;1.67;;;0.95;;
51475;SDS011;37554;50.362;7.568;2023-04-25T00:49:36;1.90;;;0.85;;
51475;SDS011;37554;50.362;7.568;2023-04-25T00:52:02;2.67;;;1.20;;
51475;SDS011;37554;50.362;7.568;2023-04-25T00:54:28;1.88;;;1.20;;
51475;SDS011;37554;50.362;7.568;2023-04-25T00:56:55;2.80;;;1.00;;
51475;SDS011;37554;50.362;7.568;2023-04-25T00:59:20;1.75;;;1.20;;
51475;SDS011;37554;50.362;7.568;2023-04-25T01:01:46;1.63;;;1.08;;
51475;SDS011;37554;50.362;7.568;2023-04-25T01:04:12;2.45;;;1.20;;
51475;SDS011;37554;50.362;7.568;2023-04-25T01:06:38;1.90;;;1.20;;
51475;SDS011;37554;50.362;7.568;2023-04-25T01:09:04;1.52;;;0.90;;
51475;SDS011;37554;50.362;7.568;2023-04-25T01:11:30;1.52;;;0.85;;
51475;SDS011;37554;50.362;7.568;2023-04-25T01:13:56;1.45;;;1.05;;
51475;SDS011;37554;50.362;7.568;2023-04-25T01:16:22;3.35;;;1.08;;
51475;SDS011;37554;50.362;7.568;2023-04-25T01:18:49;2.15;;;1.13;;
51475;SDS011;37554;50.362;7.568;2023-04-25T01:21:16;2.58;;;1.50;;
51475;SDS011;37554;50.362;7.568;2023-04-25T01:23:42;1.85;;;1.10;;
51475;SDS011;37554;50.362;7.568;2023-04-25T01:26:11;2.53;;;1.20;;
51475;SDS011;37554;50.362;7.568;2023-04-25T01:28:43;2.17;;;1.20;;
51475;SDS011;37554;50.362;7.568;2023-04-25T01:33:36;1.92;;;1.00;;
51475;SDS011;37554;50.362;7.568;2023-04-25T01:36:02;2.13;;;1.30;;
51475;SDS011;37554;50.362;7.568;2023-04-25T01:38:28;1.73;;;1.10;;
51475;SDS011;37554;50.362;7.568;2023-04-25T01:40:54;2.80;;;1.33;;
51475;SDS011;37554;50.362;7.568;2023-04-25T01:43:20;2.13;;;1.10;;
51475;SDS011;37554;50.362;7.568;2023-04-25T01:45:46;2.20;;;1.25;;
51475;SDS011;37554;50.362;7.568;2023-04-25T01:48:14;2.53;;;1.30;;
51475;SDS011;37554;50.362;7.568;2023-04-25T01:50:40;2.05;;;1.35;;
51475;SDS011;37554;50.362;7.568;2023-04-25T01:53:06;1.80;;;1.10;;
51475;SDS011;37554;50.362;7.568;2023-04-25T01:55:33;2.08;;;1.10;;
51475;SDS011;37554;50.362;7.568;2023-04-25T01:57:59;2.22;;;1.10;;
51475;SDS011;37554;50.362;7.568;2023-04-25T02:00:27;1.98;;;1.20;;
51475;SDS011;37554;50.362;7.568;2023-04-25T02:02:52;2.00;;;0.95;;
51475;SDS011;37554;50.362;7.568;2023-04-25T02:05:18;1.95;;;1.10;;
51475;SDS011;37554;50.362;7.568;2023-04-25T02:07:45;1.48;;;1.02;;
51475;SDS011;37554;50.362;7.568;2023-04-25T02:10:11;2.75;;;1.27;;
51475;SDS011;37554;50.362;7.568;2023-04-25T02:12:37;1.92;;;1.30;;
51475;SDS011;37554;50.362;7.568;2023-04-25T02:15:03;2.00;;;1.20;;
51475;SDS011;37554;50.362;7.568;2023-04-25T02:17:29;2.10;;;1.27;;
51475;SDS011;37554;50.362;7.568;2023-04-25T02:19:56;2.22;;;1.15;;
51475;SDS011;37554;50.362;7.568;2023-04-25T02:22:22;2.63;;;1.15;;
51475;SDS011;37554;50.362;7.568;2023-04-25T02:24:47;3.03;;;1.30;;
51475;SDS011;37554;50.362;7.568;2023-04-25T02:27:13;2.80;;;1.35;;
51475;SDS011;37554;50.362;7.568;2023-04-25T02:29:38;1.70;;;1.08;;
51475;SDS011;37554;50.362;7.568;2023-04-25T02:32:04;2.35;;;1.00;;
51475;SDS011;37554;50.362;7.568;2023-04-25T02:34:30;2.28;;;1.15;;
51475;SDS011;37554;50.362;7.568;2023-04-25T02:36:55;2.67;;;0.98;;
51475;SDS011;37554;50.362;7.568;2023-04-25T02:39:21;2.85;;;1.10;;
51475;SDS011;37554;50.362;7.568;2023-04-25T02:41:47;2.33;;;1.30;;
51475;SDS011;37554;50.362;7.568;2023-04-25T02:44:12;1.90;;;1.02;;
51475;SDS011;37554;50.362;7.568;2023-04-25T02:46:38;1.63;;;1.05;;
51475;SDS011;37554;50.362;7.568;2023-04-25T02:49:04;2.10;;;1.20;;
51475;SDS011;37554;50.362;7.568;2023-04-25T02:51:30;2.00;;;1.10;;
51475;SDS011;37554;50.362;7.568;2023-04-25T02:53:55;1.50;;;1.02;;
51475;SDS011;37554;50.362;7.568;2023-04-25T02:56:21;2.75;;;1.10;;
51475;SDS011;37554;50.362;7.568;2023-04-25T02:58:47;1.52;;;1.17;;
51475;SDS011;37554;50.362;7.568;2023-04-25T03:01:12;1.60;;;1.25;;
51475;SDS011;37554;50.362;7.568;2023-04-25T03:03:38;1.55;;;1.00;;
51475;SDS011;37554;50.362;7.568;2023-04-25T03:06:03;2.05;;;1.02;;
51475;SDS011;37554;50.362;7.568;2023-04-25T03:08:29;1.88;;;1.40;;
51475;SDS011;37554;50.362;7.568;2023-04-25T03:10:57;1.80;;;1.20;;
51475;SDS011;37554;50.362;7.568;2023-04-25T03:13:23;2.03;;;1.00;;
51475;SDS011;37554;50.362;7.568;2023-04-25T03:15:49;2.75;;;1.20;;
51475;SDS011;37554;50.362;7.568;2023-04-25T03:18:15;2.22;;;1.02;;
51475;SDS011;37554;50.362;7.568;2023-04-25T03:20:40;1.20;;;1.10;;
51475;SDS011;37554;50.362;7.568;2023-04-25T03:23:07;2.05;;;1.33;;
51475;SDS011;37554;50.362;7.568;2023-04-25T03:25:32;3.40;;;1.25;;
51475;SDS011;37554;50.362;7.568;2023-04-25T03:27:58;2.50;;;1.30;;
51475;SDS011;37554;50.362;7.568;2023-04-25T03:30:24;1.35;;;1.05;;
51475;SDS011;37554;50.362;7.568;2023-04-25T03:32:49;1.65;;;1.13;;
51475;SDS011;37554;50.362;7.568;2023-04-25T03:35:15;1.98;;;1.20;;
51475;SDS011;37554;50.362;7.568;2023-04-25T03:37:41;1.60;;;1.13;;
51475;SDS011;37554;50.362;7.568;2023-04-25T03:40:10;2.67;;;1.33;;
51475;SDS011;37554;50.362;7.568;2023-04-25T03:42:36;4.55;;;1.30;;
51475;SDS011;37554;50.362;7.568;2023-04-25T03:45:01;1.35;;;0.90;;
51475;SDS011;37554;50.362;7.568;2023-04-25T03:47:27;2.20;;;1.10;;
51475;SDS011;37554;50.362;7.568;2023-04-25T03:49:53;2.20;;;1.13;;
51475;SDS011;37554;50.362;7.568;2023-04-25T03:52:18;2.33;;;1.42;;
51475;SDS011;37554;50.362;7.568;2023-04-25T03:54:44;1.80;;;1.23;;
51475;SDS011;37554;50.362;7.568;2023-04-25T03:57:10;1.48;;;1.05;;
51475;SDS011;37554;50.362;7.568;2023-04-25T03:59:35;3.17;;;1.25;;
51475;SDS011;37554;50.362;7.568;2023-04-25T04:02:01;1.83;;;1.13;;
51475;SDS011;37554;50.362;7.568;2023-04-25T04:04:26;2.53;;;1.40;;
51475;SDS011;37554;50.362;7.568;2023-04-25T04:06:52;3.08;;;1.10;;
51475;SDS011;37554;50.362;7.568;2023-04-25T04:09:18;2.47;;;1.30;;
51475;SDS011;37554;50.362;7.568;2023-04-25T04:11:44;2.30;;;1.30;;
51475;SDS011;37554;50.362;7.568;2023-04-25T04:14:10;2.75;;;1.27;;
51475;SDS011;37554;50.362;7.568;2023-04-25T04:16:35;3.40;;;1.30;;
51475;SDS011;37554;50.362;7.568;2023-04-25T04:19:01;2.47;;;1.45;;
51475;SDS011;37554;50.362;7.568;2023-04-25T04:21:27;3.03;;;1.70;;
51475;SDS011;37554;50.362;7.568;2023-04-25T04:23:53;1.98;;;1.65;;
51475;SDS011;37554;50.362;7.568;2023-04-25T04:26:19;1.83;;;1.35;;
51475;SDS011;37554;50.362;7.568;2023-04-25T04:28:48;4.15;;;1.58;;
51475;SDS011;37554;50.362;7.568;2023-04-25T04:31:16;2.40;;;1.35;;
51475;SDS011;37554;50.362;7.568;2023-04-25T04:33:44;3.15;;;1.55;;
51475;SDS011;37554;50.362;7.568;2023-04-25T04:36:10;3.42;;;1.55;;
51475;SDS011;37554;50.362;7.568;2023-04-25T04:38:36;2.42;;;1.58;;
51475;SDS011;37554;50.362;7.568;2023-04-25T04:41:02;2.70;;;1.40;;
51475;SDS011;37554;50.362;7.568;2023-04-25T04:43:28;2.85;;;1.65;;
51475;SDS011;37554;50.362;7.568;2023-04-25T04:45:54;2.75;;;1.60;;
51475;SDS011;37554;50.362;7.568;2023-04-25T04:48:21;3.40;;;1.60;;
51475;SDS011;37554;50.362;7.568;2023-04-25T04:50:47;4.80;;;1.70;;
51475;SDS011;37554;50.362;7.568;2023-04-25T04:53:12;3.15;;;1.55;;
51475;SDS011;37554;50.362;7.568;2023-04-25T04:55:38;3.00;;;1.50;;
51475;SDS011;37554;50.362;7.568;2023-04-25T04:58:06;2.33;;;1.30;;
51475;SDS011;37554;50.362;7.568;2023-04-25T05:00:32;5.10;;;1.70;;
51475;SDS011;37554;50.362;7.568;2023-04-25T05:02:58;3.30;;;1.63;;
51475;SDS011;37554;50.362;7.568;2023-04-25T05:05:24;3.88;;;1.83;;
51475;SDS011;37554;50.362;7.568;2023-04-25T05:07:49;4.25;;;1.52;;
51475;SDS011;37554;50.362;7.568;2023-04-25T05:10:16;3.30;;;1.52;;
51475;SDS011;37554;50.362;7.568;2023-04-25T05:12:42;4.97;;;1.73;;
51475;SDS011;37554;50.362;7.568;2023-04-25T05:15:07;4.95;;;1.80;;
51475;SDS011;37554;50.362;7.568;2023-04-25T05:17:33;2.67;;;1.50;;
51475;SDS011;37554;50.362;7.568;2023-04-25T05:19:59;3.75;;;1.60;;
51475;SDS011;37554;50.362;7.568;2023-04-25T05:22:25;3.55;;;1.63;;
51475;SDS011;37554;50.362;7.568;2023-04-25T05:24:51;3.05;;;1.38;;
51475;SDS011;37554;50.362;7.568;2023-04-25T05:27:17;3.55;;;1.83;;
51475;SDS011;37554;50.362;7.568;2023-04-25T05:29:43;4.88;;;1.48;;
51475;SDS011;37554;50.362;7.568;2023-04-25T05:32:09;2.70;;;1.40;;
51475;SDS011;37554;50.362;7.568;2023-04-25T05:34:35;4.10;;;2.00;;
51475;SDS011;37554;50.362;7.568;2023-04-25T05:37:00;4.70;;;1.63;;
51475;SDS011;37554;50.362;7.568;2023-04-25T05:39:26;3.35;;;1.67;;
51475;SDS011;37554;50.362;7.568;2023-04-25T05:41:52;4.43;;;1.73;;
51475;SDS011;37554;50.362;7.568;2023-04-25T05:44:17;3.97;;;2.13;;
51475;SDS011;37554;50.362;7.568;2023-04-25T05:46:43;4.22;;;1.77;;
51475;SDS011;37554;50.362;7.568;2023-04-25T05:49:09;5.10;;;2.00;;
51475;SDS011;37554;50.362;7.568;2023-04-25T05:51:35;4.55;;;2.10;;
51475;SDS011;37554;50.362;7.568;2023-04-25T05:54:01;3.83;;;1.77;;
51475;SDS011;37554;50.362;7.568;2023-04-25T05:56:26;4.88;;;1.70;;
51475;SDS011;37554;50.362;7.568;2023-04-25T05:58:52;3.33;;;2.08;;
51475;SDS011;37554;50.362;7.568;2023-04-25T06:01:18;3.95;;;1.95;;
51475;SDS011;37554;50.362;7.568;2023-04-25T06:03:43;4.30;;;2.05;;
51475;SDS011;37554;50.362;7.568;2023-04-25T06:06:09;3.88;;;1.60;;
51475;SDS011;37554;50.362;7.568;2023-04-25T06:08:36;4.32;;;1.90;;
51475;SDS011;37554;50.362;7.568;2023-04-25T06:11:02;3.47;;;1.58;;
51475;SDS011;37554;50.362;7.568;2023-04-25T06:13:28;3.42;;;1.67;;
51475;SDS011;37554;50.362;7.568;2023-04-25T06:15:54;3.47;;;1.60;;
51475;SDS011;37554;50.362;7.568;2023-04-25T06:18:19;5.00;;;1.65;;
51475;SDS011;37554;50.362;7.568;2023-04-25T06:20:45;4.05;;;1.80;;
51475;SDS011;37554;50.362;7.568;2023-04-25T06:23:11;3.33;;;1.80;;
51475;SDS011;37554;50.362;7.568;2023-04-25T06:25:36;4.50;;;1.70;;
51475;SDS011;37554;50.362;7.568;2023-04-25T06:28:02;2.50;;;1.45;;
51475;SDS011;37554;50.362;7.568;2023-04-25T06:30:27;4.20;;;1.80;;
51475;SDS011;37554;50.362;7.568;2023-04-25T06:32:53;5.00;;;1.98;;
51475;SDS011;37554;50.362;7.568;2023-04-25T06:35:19;3.42;;;1.55;;
51475;SDS011;37554;50.362;7.568;2023-04-25T06:37:45;3.25;;;1.50;;
51475;SDS011;37554;50.362;7.568;2023-04-25T06:40:11;4.10;;;1.77;;
51475;SDS011;37554;50.362;7.568;2023-04-25T06:42:37;4.13;;;1.95;;
51475;SDS011;37554;50.362;7.568;2023-04-25T06:45:02;2.92;;;1.73;;
51475;SDS011;37554;50.362;7.568;2023-04-25T06:47:28;2.67;;;1.25;;
51475;SDS011;37554;50.362;7.568;2023-04-25T06:49:55;3.00;;;1.63;;
51475;SDS011;37554;50.362;7.568;2023-04-25T06:52:20;3.78;;;1.75;;
51475;SDS011;37554;50.362;7.568;2023-04-25T06:54:46;5.40;;;1.90;;
51475;SDS011;37554;50.362;7.568;2023-04-25T06:57:12;4.20;;;1.65;;
51475;SDS011;37554;50.362;7.568;2023-04-25T06:59:38;4.30;;;1.85;;
51475;SDS011;37554;50.362;7.568;2023-04-25T07:02:04;4.43;;;1.65;;
51475;SDS011;37554;50.362;7.568;2023-04-25T07:04:30;4.10;;;1.60;;
51475;SDS011;37554;50.362;7.568;2023-04-25T07:06:56;3.60;;;1.75;;
51475;SDS011;37554;50.362;7.568;2023-04-25T07:09:22;3.20;;;1.70;;
51475;SDS011;37554;50.362;7.568;2023-04-25T07:11:48;6.15;;;1.90;;
51475;SDS011;37554;50.362;7.568;2023-04-25T07:14:13;6.10;;;1.85;;
51475;SDS011;37554;50.362;7.568;2023-04-25T07:16:40;3.35;;;1.60;;
51475;SDS011;37554;50.362;7.568;2023-04-25T07:19:05;3.38;;;1.63;;
51475;SDS011;37554;50.362;7.568;2023-04-25T07:21:31;3.33;;;1.60;;
51475;SDS011;37554;50.362;7.568;2023-04-25T07:23:57;3.40;;;1.88;;
51475;SDS011;37554;50.362;7.568;2023-04-25T07:26:23;4.80;;;1.88;;
51475;SDS011;37554;50.362;7.568;2023-04-25T07:28:49;3.17;;;2.08;;
51475;SDS011;37554;50.362;7.568;2023-04-25T07:31:16;4.30;;;1.60;;
51475;SDS011;37554;50.362;7.568;2023-04-25T07:33:43;2.75;;;1.45;;
51475;SDS011;37554;50.362;7.568;2023-04-25T07:36:10;3.17;;;1.77;;
51475;SDS011;37554;50.362;7.568;2023-04-25T07:38:35;5.22;;;1.67;;
51475;SDS011;37554;50.362;7.568;2023-04-25T07:41:01;5.05;;;1.90;;
51475;SDS011;37554;50.362;7.568;2023-04-25T07:43:27;4.00;;;1.85;;
51475;SDS011;37554;50.362;7.568;2023-04-25T07:45:52;3.28;;;1.80;;
51475;SDS011;37554;50.362;7.568;2023-04-25T07:48:18;4.20;;;2.10;;
51475;SDS011;37554;50.362;7.568;2023-04-25T07:50:44;5.07;;;2.15;;
51475;SDS011;37554;50.362;7.568;2023-04-25T07:53:10;4.85;;;2.70;;
51475;SDS011;37554;50.362;7.568;2023-04-25T07:55:36;5.25;;;1.90;;
51475;SDS011;37554;50.362;7.568;2023-04-25T07:58:04;3.90;;;2.30;;
51475;SDS011;37554;50.362;7.568;2023-04-25T08:00:34;5.65;;;2.45;;
51475;SDS011;37554;50.362;7.568;2023-04-25T08:03:00;5.25;;;2.38;;
51475;SDS011;37554;50.362;7.568;2023-04-25T08:05:25;4.38;;;2.28;;
51475;SDS011;37554;50.362;7.568;2023-04-25T08:07:51;4.90;;;2.33;;
51475;SDS011;37554;50.362;7.568;2023-04-25T08:10:17;5.05;;;2.33;;
51475;SDS011;37554;50.362;7.568;2023-04-25T08:12:42;4.47;;;2.20;;
51475;SDS011;37554;50.362;7.568;2023-04-25T08:15:08;4.85;;;2.30;;
51475;SDS011;37554;50.362;7.568;2023-04-25T08:17:34;5.68;;;2.03;;
51475;SDS011;37554;50.362;7.568;2023-04-25T08:20:00;5.07;;;2.50;;
51475;SDS011;37554;50.362;7.568;2023-04-25T08:22:26;4.18;;;1.80;;
51475;SDS011;37554;50.362;7.568;2023-04-25T08:24:51;5.70;;;2.25;;
51475;SDS011;37554;50.362;7.568;2023-04-25T08:27:20;4.18;;;2.03;;
51475;SDS011;37554;50.362;7.568;2023-04-25T08:29:45;3.60;;;1.90;;
51475;SDS011;37554;50.362;7.568;2023-04-25T08:32:11;5.57;;;2.17;;
51475;SDS011;37554;50.362;7.568;2023-04-25T08:34:37;3.55;;;1.85;;
51475;SDS011;37554;50.362;7.568;2023-04-25T08:37:04;4.40;;;1.98;;
51475;SDS011;37554;50.362;7.568;2023-04-25T08:39:30;3.83;;;1.80;;
51475;SDS011;37554;50.362;7.568;2023-04-25T08:41:56;5.57;;;1.95;;
51475;SDS011;37554;50.362;7.568;2023-04-25T08:44:22;5.97;;;2.20;;
51475;SDS011;37554;50.362;7.568;2023-04-25T08:46:48;4.90;;;2.10;;
51475;SDS011;37554;50.362;7.568;2023-04-25T08:49:15;4.93;;;1.85;;
51475;SDS011;37554;50.362;7.568;2023-04-25T08:51:45;2.47;;;1.60;;
51475;SDS011;37554;50.362;7.568;2023-04-25T08:54:12;3.92;;;2.05;;
51475;SDS011;37554;50.362;7.568;2023-04-25T08:56:47;3.60;;;1.85;;
51475;SDS011;37554;50.362;7.568;2023-04-25T08:59:14;5.47;;;2.00;;
51475;SDS011;37554;50.362;7.568;2023-04-25T09:01:40;3.17;;;1.75;;
51475;SDS011;37554;50.362;7.568;2023-04-25T09:04:05;3.65;;;1.83;;
51475;SDS011;37554;50.362;7.568;2023-04-25T09:06:31;4.80;;;1.88;;
51475;SDS011;37554;50.362;7.568;2023-04-25T09:09:03;5.15;;;2.00;;
51475;SDS011;37554;50.362;7.568;2023-04-25T09:11:30;4.47;;;2.13;;
51475;SDS011;37554;50.362;7.568;2023-04-25T09:14:15;4.28;;;1.80;;
51475;SDS011;37554;50.362;7.568;2023-04-25T09:19:27;3.95;;;2.15;;
51475;SDS011;37554;50.362;7.568;2023-04-25T09:21:55;6.25;;;2.05;;
51475;SDS011;37554;50.362;7.568;2023-04-25T09:27:02;4.20;;;2.20;;
51475;SDS011;37554;50.362;7.568;2023-04-25T09:29:30;3.90;;;1.85;;
51475;SDS011;37554;50.362;7.568;2023-04-25T09:37:24;5.35;;;2.10;;
51475;SDS011;37554;50.362;7.568;2023-04-25T09:39:53;7.50;;;2.05;;
51475;SDS011;37554;50.362;7.568;2023-04-25T09:42:23;4.47;;;2.08;;
51475;SDS011;37554;50.362;7.568;2023-04-25T09:44:51;4.22;;;1.77;;
51475;SDS011;37554;50.362;7.568;2023-04-25T09:47:23;4.18;;;1.90;;
51475;SDS011;37554;50.362;7.568;2023-04-25T09:49:50;3.50;;;1.60;;
51475;SDS011;37554;50.362;7.568;2023-04-25T09:52:18;3.65;;;1.70;;
51475;SDS011;37554;50.362;7.568;2023-04-25T09:54:45;5.88;;;1.95;;
51475;SDS011;37554;50.362;7.568;2023-04-25T09:57:24;3.65;;;1.95;;
51475;SDS011;37554;50.362;7.568;2023-04-25T09:59:54;4.57;;;1.80;;
51475;SDS011;37554;50.362;7.568;2023-04-25T10:02:21;5.82;;;2.05;;
51475;SDS011;37554;50.362;7.568;2023-04-25T10:04:51;4.78;;;2.00;;
51475;SDS011;37554;50.362;7.568;2023-04-25T10:07:24;4.50;;;2.15;;
51475;SDS011;37554;50.362;7.568;2023-04-25T10:10:02;4.35;;;1.80;;
51475;SDS011;37554;50.362;7.568;2023-04-25T10:12:29;6.43;;;1.90;;
51475;SDS011;37554;50.362;7.568;2023-04-25T10:14:58;3.55;;;1.67;;
51475;SDS011;37554;50.362;7.568;2023-04-25T10:17:25;5.95;;;1.80;;
51475;SDS011;37554;50.362;7.568;2023-04-25T10:19:52;4.55;;;1.75;;
51475;SDS011;37554;50.362;7.568;2023-04-25T10:24:55;4.07;;;1.60;;
51475;SDS011;37554;50.362;7.568;2023-04-25T10:27:22;4.25;;;1.83;;
51475;SDS011;37554;50.362;7.568;2023-04-25T10:30:00;5.00;;;1.88;;
51475;SDS011;37554;50.362;7.568;2023-04-25T10:32:33;2.75;;;1.20;;
51475;SDS011;37554;50.362;7.568;2023-04-25T10:35:02;5.43;;;1.70;;
51475;SDS011;37554;50.362;7.568;2023-04-25T10:40:38;3.85;;;1.50;;
51475;SDS011;37554;50.362;7.568;2023-04-25T10:46:01;3.10;;;1.38;;
51475;SDS011;37554;50.362;7.568;2023-04-25T10:48:37;4.25;;;1.50;;
51475;SDS011;37554;50.362;7.568;2023-04-25T10:51:09;5.28;;;1.80;;
51475;SDS011;37554;50.362;7.568;2023-04-25T10:53:35;4.95;;;1.20;;
51475;SDS011;37554;50.362;7.568;2023-04-25T10:56:11;5.30;;;1.58;;
51475;SDS011;37554;50.362;7.568;2023-04-25T10:58:45;3.80;;;1.20;;
51475;SDS011;37554;50.362;7.568;2023-04-25T11:01:14;3.70;;;1.52;;
51475;SDS011;37554;50.362;7.568;2023-04-25T11:03:44;3.05;;;1.35;;
51475;SDS011;37554;50.362;7.568;2023-04-25T11:06:29;3.92;;;1.30;;
51475;SDS011;37554;50.362;7.568;2023-04-25T11:09:10;3.20;;;1.25;;
51475;SDS011;37554;50.362;7.568;2023-04-25T11:11:40;2.58;;;1.20;;
51475;SDS011;37554;50.362;7.568;2023-04-25T11:14:05;3.05;;;1.02;;
51475;SDS011;37554;50.362;7.568;2023-04-25T11:16:31;3.10;;;1.40;;
51475;SDS011;37554;50.362;7.568;2023-04-25T11:18:57;2.97;;;1.33;;
51475;SDS011;37554;50.362;7.568;2023-04-25T11:21:26;3.22;;;1.65;;
51475;SDS011;37554;50.362;7.568;2023-04-25T11:23:53;2.80;;;1.50;;
51475;SDS011;37554;50.362;7.568;2023-04-25T11:26:19;5.28;;;1.63;;
51475;SDS011;37554;50.362;7.568;2023-04-25T11:28:45;2.40;;;1.13;;
51475;SDS011;37554;50.362;7.568;2023-04-25T11:31:12;6.43;;;1.40;;
51475;SDS011;37554;50.362;7.568;2023-04-25T11:33:37;4.55;;;1.08;;
51475;SDS011;37554;50.362;7.568;2023-04-25T11:36:05;2.38;;;1.20;;
51475;SDS011;37554;50.362;7.568;2023-04-25T11:38:31;2.10;;;1.27;;
51475;SDS011;37554;50.362;7.568;2023-04-25T11:40:57;2.60;;;1.33;;
51475;SDS011;37554;50.362;7.568;2023-04-25T11:43:23;2.35;;;1.50;;
51475;SDS011;37554;50.362;7.568;2023-04-25T11:45:49;3.47;;;1.40;;
51475;SDS011;37554;50.362;7.568;2023-04-25T11:48:18;3.83;;;1.25;;
51475;SDS011;37554;50.362;7.568;2023-04-25T11:50:45;3.25;;;1.33;;
51475;SDS011;37554;50.362;7.568;2023-04-25T11:53:11;2.75;;;1.40;;
51475;SDS011;37554;50.362;7.568;2023-04-25T11:55:37;3.20;;;1.30;;
51475;SDS011;37554;50.362;7.568;2023-04-25T11:58:03;4.30;;;1.15;;
51475;SDS011;37554;50.362;7.568;2023-04-25T12:00:29;3.17;;;1.30;;
51475;SDS011;37554;50.362;7.568;2023-04-25T12:02:56;3.75;;;1.58;;
51475;SDS011;37554;50.362;7.568;2023-04-25T12:05:28;4.53;;;1.17;;
51475;SDS011;37554;50.362;7.568;2023-04-25T12:07:57;3.60;;;1.30;;
51475;SDS011;37554;50.362;7.568;2023-04-25T12:10:23;2.78;;;1.23;;
51475;SDS011;37554;50.362;7.568;2023-04-25T12:12:50;3.97;;;1.23;;
51475;SDS011;37554;50.362;7.568;2023-04-25T12:15:25;2.38;;;0.93;;
51475;SDS011;37554;50.362;7.568;2023-04-25T12:17:51;2.22;;;0.90;;
51475;SDS011;37554;50.362;7.568;2023-04-25T12:20:19;2.30;;;1.25;;
51475;SDS011;37554;50.362;7.568;2023-04-25T12:22:56;2.67;;;1.05;;
51475;SDS011;37554;50.362;7.568;2023-04-25T12:25:35;3.30;;;1.33;;
51475;SDS011;37554;50.362;7.568;2023-04-25T12:30:55;2.20;;;1.08;;
51475;SDS011;37554;50.362;7.568;2023-04-25T12:33:33;3.83;;;1.10;;
51475;SDS011;37554;50.362;7.568;2023-04-25T12:36:00;2.85;;;1.08;;
51475;SDS011;37554;50.362;7.568;2023-04-25T12:38:37;2.97;;;1.20;;
51475;SDS011;37554;50.362;7.568;2023-04-25T12:41:03;3.25;;;1.10;;
51475;SDS011;37554;50.362;7.568;2023-04-25T12:43:29;2.60;;;1.27;;
51475;SDS011;37554;50.362;7.568;2023-04-25T12:45:55;2.15;;;1.00;;
51475;SDS011;37554;50.362;7.568;2023-04-25T12:48:21;3.85;;;1.08;;
51475;SDS011;37554;50.362;7.568;2023-04-25T12:50:48;1.50;;;0.85;;
51475;SDS011;37554;50.362;7.568;2023-04-25T12:53:21;2.92;;;1.27;;
51475;SDS011;37554;50.362;7.568;2023-04-25T12:55:48;4.75;;;1.10;;
51475;SDS011;37554;50.362;7.568;2023-04-25T12:58:14;3.90;;;1.40;;
51475;SDS011;37554;50.362;7.568;2023-04-25T13:00:41;4.05;;;1.20;;
51475;SDS011;37554;50.362;7.568;2023-04-25T13:03:07;3.58;;;1.13;;
51475;SDS011;37554;50.362;7.568;2023-04-25T13:05:33;2.45;;;1.00;;
51475;SDS011;37554;50.362;7.568;2023-04-25T13:07:58;2.05;;;0.82;;
51475;SDS011;37554;50.362;7.568;2023-04-25T13:10:24;2.40;;;1.08;;
51475;SDS011;37554;50.362;7.568;2023-04-25T13:12:50;3.00;;;1.23;;
51475;SDS011;37554;50.362;7.568;2023-04-25T13:15:15;2.85;;;1.00;;
51475;SDS011;37554;50.362;7.568;2023-04-25T13:17:41;3.45;;;1.40;;
51475;SDS011;37554;50.362;7.568;2023-04-25T13:20:07;2.33;;;1.05;;
51475;SDS011;37554;50.362;7.568;2023-04-25T13:22:37;3.53;;;1.40;;
51475;SDS011;37554;50.362;7.568;2023-04-25T13:25:04;3.05;;;1.50;;
51475;SDS011;37554;50.362;7.568;2023-04-25T13:27:32;3.38;;;1.27;;
51475;SDS011;37554;50.362;7.568;2023-04-25T13:30:02;3.03;;;1.02;;
51475;SDS011;37554;50.362;7.568;2023-04-25T13:32:33;4.38;;;1.40;;
51475;SDS011;37554;50.362;7.568;2023-04-25T13:35:01;1.95;;;1.10;;
51475;SDS011;37554;50.362;7.568;2023-04-25T13:37:27;3.63;;;1.20;;
51475;SDS011;37554;50.362;7.568;2023-04-25T13:39:54;2.97;;;1.00;;
51475;SDS011;37554;50.362;7.568;2023-04-25T13:42:21;2.35;;;1.10;;
51475;SDS011;37554;50.362;7.568;2023-04-25T13:44:47;2.33;;;1.17;;
51475;SDS011;37554;50.362;7.568;2023-04-25T13:47:13;2.75;;;1.20;;
51475;SDS011;37554;50.362;7.568;2023-04-25T13:49:39;3.13;;;1.13;;
51475;SDS011;37554;50.362;7.568;2023-04-25T13:52:06;2.33;;;1.05;;
51475;SDS011;37554;50.362;7.568;2023-04-25T13:54:32;2.47;;;1.10;;
51475;SDS011;37554;50.362;7.568;2023-04-25T13:56:58;2.97;;;1.20;;
51475;SDS011;37554;50.362;7.568;2023-04-25T13:59:24;3.75;;;1.20;;
51475;SDS011;37554;50.362;7.568;2023-04-25T14:01:50;2.17;;;0.93;;
51475;SDS011;37554;50.362;7.568;2023-04-25T14:04:16;1.67;;;0.90;;
51475;SDS011;37554;50.362;7.568;2023-04-25T14:06:42;2.22;;;1.00;;
51475;SDS011;37554;50.362;7.568;2023-04-25T14:09:08;2.92;;;0.80;;
51475;SDS011;37554;50.362;7.568;2023-04-25T14:11:38;2.92;;;1.08;;
51475;SDS011;37554;50.362;7.568;2023-04-25T14:14:03;4.43;;;0.70;;
51475;SDS011;37554;50.362;7.568;2023-04-25T14:16:29;3.28;;;1.15;;
51475;SDS011;37554;50.362;7.568;2023-04-25T14:18:57;3.83;;;1.27;;
51475;SDS011;37554;50.362;7.568;2023-04-25T14:21:23;3.45;;;1.17;;
51475;SDS011;37554;50.362;7.568;2023-04-25T14:23:50;2.38;;;1.05;;
51475;SDS011;37554;50.362;7.568;2023-04-25T14:26:15;3.28;;;1.40;;
51475;SDS011;37554;50.362;7.568;2023-04-25T14:28:41;2.15;;;1.08;;
51475;SDS011;37554;50.362;7.568;2023-04-25T14:31:07;4.00;;;1.08;;
51475;SDS011;37554;50.362;7.568;2023-04-25T14:33:32;2.08;;;0.98;;
51475;SDS011;37554;50.362;7.568;2023-04-25T14:35:59;2.40;;;0.85;;
51475;SDS011;37554;50.362;7.568;2023-04-25T14:38:24;2.70;;;1.10;;
51475;SDS011;37554;50.362;7.568;2023-04-25T14:40:50;3.05;;;0.90;;
51475;SDS011;37554;50.362;7.568;2023-04-25T14:43:16;2.63;;;1.00;;
51475;SDS011;37554;50.362;7.568;2023-04-25T14:45:42;4.75;;;1.10;;
51475;SDS011;37554;50.362;7.568;2023-04-25T14:48:08;2.25;;;0.95;;
51475;SDS011;37554;50.362;7.568;2023-04-25T14:50:33;2.22;;;1.00;;
51475;SDS011;37554;50.362;7.568;2023-04-25T14:52:59;1.95;;;1.00;;
51475;SDS011;37554;50.362;7.568;2023-04-25T14:55:28;2.40;;;1.10;;
51475;SDS011;37554;50.362;7.568;2023-04-25T14:57:54;1.50;;;0.70;;
51475;SDS011;37554;50.362;7.568;2023-04-25T15:00:20;1.77;;;1.02;;
51475;SDS011;37554;50.362;7.568;2023-04-25T15:02:47;2.03;;;0.93;;
51475;SDS011;37554;50.362;7.568;2023-04-25T15:05:13;2.40;;;1.10;;
51475;SDS011;37554;50.362;7.568;2023-04-25T15:07:39;1.83;;;0.93;;
51475;SDS011;37554;50.362;7.568;2023-04-25T15:10:08;2.03;;;1.27;;